createdAt,value
2023-05-01T00:01:35.051Z,961.54
2023-05-01T00:06:37.045Z,961.53
2023-05-01T00:11:38.275Z,961.47
2023-05-01T00:16:39.910Z,961.47
2023-05-01T00:21:41.230Z,961.36
2023-05-01T00:26:43.288Z,961.35
2023-05-01T00:31:44.639Z,961.31
2023-05-01T00:36:47.075Z,961.27
2023-05-01T00:41:47.458Z,961.21
2023-05-01T00:46:49.541Z,961.17
2023-05-01T00:51:51.045Z,961.16
2023-05-01T00:56:52.244Z,961.1
2023-05-01T01:01:55.704Z,961.01
2023-05-01T01:06:55.189Z,961.05
2023-05-01T01:11:56.536Z,961.04
2023-05-01T01:16:58.495Z,961.04
2023-05-01T01:21:59.976Z,961.02
2023-05-01T01:27:02.001Z,960.95
2023-05-01T01:32:03.561Z,960.9
2023-05-01T01:37:05.676Z,960.93
2023-05-01T01:42:07.146Z,960.95
2023-05-01T01:47:08.744Z,960.93
2023-05-01T01:52:09.905Z,960.88
2023-05-01T01:57:11.978Z,960.82
2023-05-01T02:02:13.562Z,960.76
2023-05-01T02:07:14.653Z,960.68
2023-05-01T02:12:16.233Z,960.62
2023-05-01T02:17:18.435Z,960.58
2023-05-01T02:22:20.436Z,960.54
2023-05-01T02:27:21.776Z,960.48
2023-05-01T02:32:23.631Z,960.42
2023-05-01T02:37:25.173Z,960.42
2023-05-01T02:42:26.906Z,960.44
2023-05-01T02:47:28.885Z,960.35
2023-05-01T02:52:30.167Z,960.24
2023-05-01T02:57:31.484Z,960.14
2023-05-01T03:02:33.610Z,960.15
2023-05-01T03:07:35.154Z,960.16
2023-05-01T03:12:36.611Z,960.18
2023-05-01T03:17:38.379Z,960.21
2023-05-01T03:22:40.412Z,960.28
2023-05-01T03:27:42.517Z,960.18
2023-05-01T03:32:44.623Z,960.12
2023-05-01T03:37:45.794Z,960.13
2023-05-01T03:42:47.353Z,960.06
2023-05-01T03:47:48.864Z,959.99
2023-05-01T03:52:50.562Z,960.02
2023-05-01T03:57:52.002Z,960
2023-05-01T04:02:53.559Z,959.96
2023-05-01T04:07:55.493Z,960.03
2023-05-01T04:12:56.671Z,960.05
2023-05-01T04:17:58.279Z,960.1
2023-05-01T04:22:59.645Z,960.1
2023-05-01T04:28:01.198Z,960.05
2023-05-01T04:33:02.862Z,960.09
2023-05-01T04:38:04.511Z,960.06
2023-05-01T04:43:05.827Z,959.96
2023-05-01T04:48:07.892Z,959.89
2023-05-01T04:53:09.080Z,959.96
2023-05-01T04:58:10.705Z,959.97
2023-05-01T05:03:12.175Z,960.04
2023-05-01T05:08:14.063Z,960.08
2023-05-01T05:13:16.070Z,960.03
2023-05-01T05:18:17.721Z,960.03
2023-05-01T05:23:19.333Z,959.96
2023-05-01T05:28:21.317Z,959.97
2023-05-01T05:33:23.451Z,959.96
2023-05-01T05:38:25.357Z,960.02
2023-05-01T05:43:28.081Z,960
2023-05-01T05:48:28.265Z,960.01
2023-05-01T05:53:30.044Z,960.04
2023-05-01T05:58:32.138Z,960.08
2023-05-01T06:03:34.396Z,960.14
2023-05-01T06:43:48.071Z,960.04
2023-05-01T07:13:58.327Z,959.99
2023-05-01T07:24:01.621Z,960.01
2023-05-01T07:59:13.148Z,960.12
2023-05-01T08:49:35.857Z,960.27
2023-05-01T08:54:38.026Z,960.36
2023-05-01T08:59:39.720Z,960.38
2023-05-01T09:04:41.651Z,960.45
2023-05-01T09:09:43.346Z,960.48
2023-05-01T09:14:44.902Z,960.49
2023-05-01T09:19:46.849Z,960.5
2023-05-01T09:24:48.859Z,960.52
2023-05-01T09:29:50.122Z,960.6
2023-05-01T09:34:52.270Z,960.61
2023-05-01T09:39:54.297Z,960.67
2023-05-01T09:44:55.422Z,960.64
2023-05-01T09:49:57.297Z,960.69
2023-05-01T09:54:59.058Z,960.73
2023-05-01T10:00:01.013Z,960.76
2023-05-01T10:05:02.889Z,960.83
2023-05-01T10:10:04.370Z,960.81
2023-05-01T10:15:13.992Z,960.81
2023-05-01T10:20:07.381Z,960.81
2023-05-01T10:25:08.647Z,960.8
2023-05-01T10:30:10.483Z,960.84
2023-05-01T10:35:11.810Z,960.85
2023-05-01T10:40:13.092Z,960.84
2023-05-01T10:45:14.437Z,960.83
2023-05-01T10:50:16.295Z,960.8
2023-05-01T10:55:17.437Z,960.75
2023-05-01T11:00:19.465Z,960.73
2023-05-01T11:05:28.986Z,960.67
2023-05-01T11:10:22.880Z,960.64
2023-05-01T11:15:24.550Z,960.65
2023-05-01T11:20:25.853Z,960.57
2023-05-01T11:25:27.385Z,960.55
2023-05-01T11:30:28.680Z,960.51
2023-05-01T11:35:30.378Z,960.45
2023-05-01T11:40:32.039Z,960.41
2023-05-01T11:45:33.977Z,960.43
2023-05-01T11:50:36.140Z,960.45
2023-05-01T11:55:37.623Z,960.48
2023-05-01T12:00:39.366Z,960.46
2023-05-01T12:05:40.803Z,960.46
2023-05-01T12:10:42.084Z,960.48
2023-05-01T12:15:44.132Z,960.48
2023-05-01T12:20:46.299Z,960.49
2023-05-01T12:25:48.114Z,960.5
2023-05-01T12:30:49.963Z,960.49
2023-05-01T12:35:51.659Z,960.54
2023-05-01T12:40:53.030Z,960.5
2023-05-01T12:45:54.557Z,960.46
2023-05-01T12:50:55.827Z,960.49
2023-05-01T12:55:57.319Z,960.46
2023-05-01T13:00:58.927Z,960.47
2023-05-01T13:06:00.616Z,960.43
2023-05-01T13:11:02.515Z,960.44
2023-05-01T13:16:03.916Z,960.41
2023-05-01T13:21:05.725Z,960.42
2023-05-01T13:26:07.049Z,960.32
2023-05-01T13:31:08.751Z,960.32
2023-05-01T13:36:18.075Z,960.36
2023-05-01T13:41:12.766Z,960.4
2023-05-01T13:46:14.556Z,960.49
2023-05-01T13:51:16.307Z,960.47
2023-05-01T13:56:18.455Z,960.4
2023-05-01T14:01:19.910Z,960.38
2023-05-01T14:06:21.996Z,960.36
2023-05-01T14:11:23.272Z,960.33
2023-05-01T14:16:24.546Z,960.29
2023-05-01T14:21:26.481Z,960.3
2023-05-01T14:26:28.179Z,960.3
2023-05-01T14:31:30.393Z,960.28
2023-05-01T14:36:31.867Z,960.29
2023-05-01T14:41:33.769Z,960.29
2023-05-01T14:46:35.502Z,960.3
2023-05-01T14:51:37.314Z,960.3
2023-05-01T14:56:39.213Z,960.28
2023-05-01T15:01:41.161Z,960.29
2023-05-01T15:06:43.333Z,960.37
2023-05-01T15:11:44.691Z,960.41
2023-05-01T15:16:46.474Z,960.45
2023-05-01T15:21:47.820Z,960.4
2023-05-01T15:26:49.694Z,960.42
2023-05-01T15:31:58.405Z,960.44
2023-05-01T15:36:53.272Z,960.45
2023-05-01T15:41:55.049Z,960.42
2023-05-01T15:46:56.525Z,960.38
2023-05-01T15:51:58.441Z,960.45
2023-05-01T15:56:59.813Z,960.43
2023-05-01T16:02:01.794Z,960.45
2023-05-01T16:07:03.404Z,960.5
2023-05-01T16:12:04.674Z,960.45
2023-05-01T16:17:06.642Z,960.48
2023-05-01T16:22:07.911Z,960.51
2023-05-01T16:27:10.013Z,960.53
2023-05-01T16:32:11.683Z,960.58
2023-05-01T16:37:12.876Z,960.58
2023-05-01T16:42:14.335Z,960.57
2023-05-01T16:47:16.065Z,960.61
2023-05-01T16:52:17.668Z,960.61
2023-05-01T16:57:19.182Z,960.64
2023-05-01T17:02:20.589Z,960.66
2023-05-01T17:07:22.529Z,960.7
2023-05-01T17:12:23.856Z,960.74
2023-05-01T17:17:25.402Z,960.8
2023-05-01T17:22:29.028Z,960.83
2023-05-01T17:27:29.652Z,960.93
2023-05-01T17:32:36.792Z,960.92
2023-05-01T17:37:32.525Z,961
2023-05-01T17:42:34.001Z,961.05
2023-05-01T17:47:35.711Z,961.08
2023-05-01T17:52:37.367Z,961.11
2023-05-01T17:57:38.749Z,961.14
2023-05-01T18:02:40.902Z,961.14
2023-05-01T18:07:42.478Z,961.23
2023-05-01T18:12:44.145Z,961.24
2023-05-01T18:17:45.751Z,961.3
2023-05-01T18:22:47.801Z,961.3
2023-05-01T18:27:49.689Z,961.37
2023-05-01T18:32:51.410Z,961.42
2023-05-01T18:37:52.668Z,961.45
2023-05-01T18:42:54.172Z,961.47
2023-05-01T18:47:55.622Z,961.56
2023-05-01T18:52:57.061Z,961.56
2023-05-01T18:57:59.079Z,961.64
2023-05-01T19:03:00.526Z,961.71
2023-05-01T19:08:02.482Z,961.72
2023-05-01T19:13:04.039Z,961.77
2023-05-01T19:18:05.890Z,961.77
2023-05-01T19:23:07.926Z,961.78
2023-05-01T19:28:10.019Z,961.84
2023-05-01T19:33:11.472Z,961.87
2023-05-01T19:38:13.561Z,961.84
2023-05-01T19:43:15.726Z,961.86
2023-05-01T19:48:16.897Z,961.89
2023-05-01T19:53:19.015Z,961.94
2023-05-01T19:58:20.313Z,961.95
2023-05-01T20:03:22.133Z,962.09
2023-05-01T20:08:23.880Z,962.12
2023-05-01T20:13:25.277Z,962.12
2023-05-01T20:18:27.280Z,962.16
2023-05-01T20:23:29.193Z,962.26
2023-05-01T20:28:30.496Z,962.25
2023-05-01T20:33:31.778Z,962.25
2023-05-01T20:38:33.912Z,962.3
2023-05-01T20:58:41.080Z,962.39
2023-05-01T21:23:49.247Z,962.5
2023-05-01T21:28:51.352Z,962.54
2023-05-01T21:59:01.599Z,962.83
2023-05-01T22:09:05.356Z,962.92
2023-05-01T22:14:07.431Z,962.91
2023-05-01T22:59:23.339Z,963.08
2023-05-01T23:19:29.750Z,963.09
2023-05-01T23:29:33.308Z,963.09
2023-05-01T23:34:34.771Z,963.1
2023-05-01T23:39:36.204Z,963.07
2023-05-01T23:44:37.428Z,963.07
2023-05-01T23:49:38.674Z,963.09
2023-05-01T23:54:40.022Z,963.09
2023-05-01T23:59:41.244Z,963.1
